sensor_id;sensor_type;location;lat;lon;timestamp;pressure;altitude;pressure_sealevel;temperature;humidity
72721;BME280;60835;50.974;10.322;2023-06-26T00:01:02;98150.47;;;17.77;100.00
72721;BME280;60835;50.974;10.322;2023-06-26T00:03:29;98143.91;;;17.86;100.00
72721;BME280;60835;50.974;10.322;2023-06-26T00:05:55;98138.16;;;17.76;100.00
72721;BME280;60835;50.974;10.322;2023-06-26T00:08:28;98133.81;;;17.62;100.00
72721;BME280;60835;50.974;10.322;2023-06-26T00:10:54;98117.16;;;17.60;100.00
72721;BME280;60835;50.974;10.322;2023-06-26T00:13:22;98125.34;;;17.52;100.00
72721;BME280;60835;50.974;10.322;2023-06-26T00:15:50;98112.59;;;17.41;100.00
72721;BME280;60835;50.974;10.322;2023-06-26T00:18:16;98124.53;;;17.51;100.00
72721;BME280;60835;50.974;10.322;2023-06-26T00:20:43;98113.00;;;17.51;100.00
72721;BME280;60835;50.974;10.322;2023-06-26T00:23:11;98116.28;;;17.40;100.00
72721;BME280;60835;50.974;10.322;2023-06-26T00:25:39;98113.19;;;17.30;100.00
72721;BME280;60835;50.974;10.322;2023-06-26T00:28:06;98115.88;;;17.30;100.00
72721;BME280;60835;50.974;10.322;2023-06-26T00:30:33;98115.06;;;17.23;100.00
72721;BME280;60835;50.974;10.322;2023-06-26T00:32:59;98102.69;;;17.22;100.00
72721;BME280;60835;50.974;10.322;2023-06-26T00:35:26;98081.09;;;17.17;100.00
72721;BME280;60835;50.974;10.322;2023-06-26T00:37:52;98093.03;;;17.08;100.00
72721;BME280;60835;50.974;10.322;2023-06-26T00:40:19;98077.19;;;17.06;100.00
72721;BME280;60835;50.974;10.322;2023-06-26T00:42:45;98078.63;;;17.09;100.00
72721;BME280;60835;50.974;10.322;2023-06-26T00:45:12;98073.47;;;17.00;100.00
72721;BME280;60835;50.974;10.322;2023-06-26T00:47:38;98061.75;;;17.08;100.00
72721;BME280;60835;50.974;10.322;2023-06-26T00:50:06;98060.13;;;17.07;100.00
72721;BME280;60835;50.974;10.322;2023-06-26T00:52:34;98075.56;;;17.12;100.00
72721;BME280;60835;50.974;10.322;2023-06-26T00:55:01;98080.69;;;17.07;100.00
72721;BME280;60835;50.974;10.322;2023-06-26T00:57:27;98067.50;;;17.05;100.00
72721;BME280;60835;50.974;10.322;2023-06-26T00:59:54;98064.66;;;17.07;100.00
72721;BME280;60835;50.974;10.322;2023-06-26T01:02:21;98064.66;;;17.07;100.00
72721;BME280;60835;50.974;10.322;2023-06-26T01:04:48;98063.00;;;16.99;100.00
72721;BME280;60835;50.974;10.322;2023-06-26T01:07:16;98065.66;;;16.92;100.00
72721;BME280;60835;50.974;10.322;2023-06-26T01:09:48;98050.81;;;16.77;100.00
72721;BME280;60835;50.974;10.322;2023-06-26T01:12:15;98048.38;;;16.75;100.00
72721;BME280;60835;50.974;10.322;2023-06-26T01:14:42;98041.78;;;16.71;100.00
72721;BME280;60835;50.974;10.322;2023-06-26T01:17:10;98038.28;;;16.71;100.00
72721;BME280;60835;50.974;10.322;2023-06-26T01:19:42;98023.91;;;16.65;100.00
72721;BME280;60835;50.974;10.322;2023-06-26T01:22:19;98024.53;;;16.67;100.00
72721;BME280;60835;50.974;10.322;2023-06-26T01:25:13;98033.16;;;16.69;100.00
72721;BME280;60835;50.974;10.322;2023-06-26T01:27:50;98018.97;;;16.62;100.00
72721;BME280;60835;50.974;10.322;2023-06-26T01:30:17;98018.53;;;16.59;100.00
72721;BME280;60835;50.974;10.322;2023-06-26T01:32:44;98021.41;;;16.57;100.00
72721;BME280;60835;50.974;10.322;2023-06-26T01:35:12;98003.50;;;16.51;100.00
72721;BME280;60835;50.974;10.322;2023-06-26T01:37:39;98010.94;;;16.56;100.00
72721;BME280;60835;50.974;10.322;2023-06-26T01:40:06;98001.63;;;16.45;100.00
72721;BME280;60835;50.974;10.322;2023-06-26T01:42:34;98004.28;;;16.38;100.00
72721;BME280;60835;50.974;10.322;2023-06-26T01:45:06;97994.00;;;16.42;100.00
72721;BME280;60835;50.974;10.322;2023-06-26T01:47:35;97996.50;;;16.43;100.00
72721;BME280;60835;50.974;10.322;2023-06-26T01:50:14;97987.03;;;16.34;100.00
72721;BME280;60835;50.974;10.322;2023-06-26T01:53:02;97989.72;;;16.41;100.00
72721;BME280;60835;50.974;10.322;2023-06-26T01:55:47;97984.56;;;16.39;100.00
72721;BME280;60835;50.974;10.322;2023-06-26T01:58:16;97993.16;;;16.28;100.00
72721;BME280;60835;50.974;10.322;2023-06-26T02:00:44;97992.13;;;16.29;100.00
72721;BME280;60835;50.974;10.322;2023-06-26T02:03:11;97976.34;;;16.28;100.00
72721;BME280;60835;50.974;10.322;2023-06-26T02:05:38;97984.75;;;16.25;100.00
72721;BME280;60835;50.974;10.322;2023-06-26T02:08:04;97963.19;;;16.26;100.00
72721;BME280;60835;50.974;10.322;2023-06-26T02:10:31;97961.56;;;16.32;100.00
72721;BME280;60835;50.974;10.322;2023-06-26T02:12:58;97949.63;;;16.21;100.00
72721;BME280;60835;50.974;10.322;2023-06-26T02:15:24;97944.28;;;16.15;100.00
72721;BME280;60835;50.974;10.322;2023-06-26T02:17:51;97931.13;;;16.07;100.00
72721;BME280;60835;50.974;10.322;2023-06-26T02:20:17;97922.50;;;16.11;100.00
72721;BME280;60835;50.974;10.322;2023-06-26T02:22:45;97913.47;;;16.12;100.00
72721;BME280;60835;50.974;10.322;2023-06-26T02:25:11;97918.16;;;16.04;100.00
72721;BME280;60835;50.974;10.322;2023-06-26T02:27:39;97918.78;;;16.06;100.00
72721;BME280;60835;50.974;10.322;2023-06-26T02:30:06;97905.66;;;16.04;100.00
72721;BME280;60835;50.974;10.322;2023-06-26T02:32:32;97906.25;;;16.00;100.00
72721;BME280;60835;50.974;10.322;2023-06-26T02:34:59;97895.34;;;15.95;100.00
72721;BME280;60835;50.974;10.322;2023-06-26T02:37:25;97891.06;;;16.00;100.00
72721;BME280;60835;50.974;10.322;2023-06-26T02:39:52;97876.91;;;16.06;100.00
72721;BME280;60835;50.974;10.322;2023-06-26T02:42:18;97880.22;;;16.02;100.00
72721;BME280;60835;50.974;10.322;2023-06-26T02:44:45;97871.75;;;15.92;100.00
72721;BME280;60835;50.974;10.322;2023-06-26T02:47:11;97861.50;;;15.95;100.00
72721;BME280;60835;50.974;10.322;2023-06-26T02:49:38;97849.78;;;15.90;100.00
72721;BME280;60835;50.974;10.322;2023-06-26T02:52:05;97847.34;;;15.88;100.00
72721;BME280;60835;50.974;10.322;2023-06-26T02:54:31;97828.66;;;15.95;100.00
72721;BME280;60835;50.974;10.322;2023-06-26T02:56:58;97822.72;;;15.93;100.00
72721;BME280;60835;50.974;10.322;2023-06-26T02:59:26;97816.56;;;15.86;100.00
72721;BME280;60835;50.974;10.322;2023-06-26T03:01:52;97803.00;;;15.80;100.00
72721;BME280;60835;50.974;10.322;2023-06-26T03:04:19;97784.75;;;15.77;100.00
72721;BME280;60835;50.974;10.322;2023-06-26T03:06:47;97777.56;;;15.84;100.00
72721;BME280;60835;50.974;10.322;2023-06-26T03:09:14;97781.03;;;15.78;100.00
72721;BME280;60835;50.974;10.322;2023-06-26T03:11:42;97780.19;;;15.71;100.00
72721;BME280;60835;50.974;10.322;2023-06-26T03:14:09;97760.09;;;15.89;100.00
72721;BME280;60835;50.974;10.322;2023-06-26T03:16:35;97755.78;;;15.81;100.00
72721;BME280;60835;50.974;10.322;2023-06-26T03:19:02;97752.53;;;15.86;100.00
72721;BME280;60835;50.974;10.322;2023-06-26T03:21:28;97736.91;;;15.76;100.00
72721;BME280;60835;50.974;10.322;2023-06-26T03:23:56;97750.47;;;15.81;100.00
72721;BME280;60835;50.974;10.322;2023-06-26T03:26:23;97737.53;;;15.78;100.00
72721;BME280;60835;50.974;10.322;2023-06-26T03:28:54;97736.09;;;15.75;100.00
72721;BME280;60835;50.974;10.322;2023-06-26T03:31:21;97715.81;;;15.74;100.00
72721;BME280;60835;50.974;10.322;2023-06-26T03:33:48;97701.41;;;15.62;100.00
72721;BME280;60835;50.974;10.322;2023-06-26T03:36:14;97690.94;;;15.54;100.00
72721;BME280;60835;50.974;10.322;2023-06-26T03:38:41;97688.09;;;15.69;100.00
72721;BME280;60835;50.974;10.322;2023-06-26T03:41:07;97681.09;;;15.55;100.00
72721;BME280;60835;50.974;10.322;2023-06-26T03:43:34;97674.75;;;15.62;100.00
72721;BME280;60835;50.974;10.322;2023-06-26T03:46:01;97651.59;;;15.69;100.00
72721;BME280;60835;50.974;10.322;2023-06-26T03:48:27;97640.28;;;15.67;100.00
72721;BME280;60835;50.974;10.322;2023-06-26T03:50:54;97629.84;;;15.72;100.00
72721;BME280;60835;50.974;10.322;2023-06-26T03:53:20;97622.06;;;15.64;100.00
72721;BME280;60835;50.974;10.322;2023-06-26T03:55:47;97612.63;;;15.68;100.00
72721;BME280;60835;50.974;10.322;2023-06-26T03:58:13;97608.28;;;15.67;100.00
72721;BME280;60835;50.974;10.322;2023-06-26T04:00:40;97594.56;;;15.70;100.00
72721;BME280;60835;50.974;10.322;2023-06-26T04:03:07;97595.78;;;15.74;100.00
72721;BME280;60835;50.974;10.322;2023-06-26T04:05:34;97599.25;;;15.81;100.00
72721;BME280;60835;50.974;10.322;2023-06-26T04:08:01;97606.03;;;15.84;100.00
72721;BME280;60835;50.974;10.322;2023-06-26T04:10:27;97606.44;;;15.88;100.00
72721;BME280;60835;50.974;10.322;2023-06-26T04:12:54;97590.03;;;15.91;100.00
72721;BME280;60835;50.974;10.322;2023-06-26T04:15:20;97600.28;;;15.94;100.00
72721;BME280;60835;50.974;10.322;2023-06-26T04:17:47;97598.59;;;15.99;100.00
72721;BME280;60835;50.974;10.322;2023-06-26T04:20:14;97590.84;;;16.04;100.00
72721;BME280;60835;50.974;10.322;2023-06-26T04:22:41;97598.63;;;16.06;100.00
72721;BME280;60835;50.974;10.322;2023-06-26T04:25:07;97591.44;;;16.06;100.00
72721;BME280;60835;50.974;10.322;2023-06-26T04:27:34;97586.69;;;16.08;100.00
72721;BME280;60835;50.974;10.322;2023-06-26T04:30:04;97599.00;;;16.16;100.00
72721;BME280;60835;50.974;10.322;2023-06-26T04:32:31;97599.38;;;16.26;100.00
72721;BME280;60835;50.974;10.322;2023-06-26T04:34:58;97601.38;;;16.37;100.00
72721;BME280;60835;50.974;10.322;2023-06-26T04:37:25;97603.81;;;16.52;100.00
72721;BME280;60835;50.974;10.322;2023-06-26T04:39:52;97610.38;;;16.62;100.00
72721;BME280;60835;50.974;10.322;2023-06-26T04:42:19;97620.00;;;16.63;100.00
72721;BME280;60835;50.974;10.322;2023-06-26T04:44:48;97645.63;;;16.77;100.00
72721;BME280;60835;50.974;10.322;2023-06-26T04:47:14;97665.69;;;16.93;100.00
72721;BME280;60835;50.974;10.322;2023-06-26T04:49:41;97675.72;;;17.04;100.00
72721;BME280;60835;50.974;10.322;2023-06-26T04:52:13;97697.22;;;17.16;100.00
72721;BME280;60835;50.974;10.322;2023-06-26T04:54:40;97712.41;;;17.28;100.00
72721;BME280;60835;50.974;10.322;2023-06-26T04:57:06;97729.88;;;17.31;100.00
72721;BME280;60835;50.974;10.322;2023-06-26T04:59:35;97737.28;;;17.29;100.00
72721;BME280;60835;50.974;10.322;2023-06-26T05:02:01;97744.44;;;17.35;100.00
72721;BME280;60835;50.974;10.322;2023-06-26T05:04:28;97748.69;;;17.42;100.00
72721;BME280;60835;50.974;10.322;2023-06-26T05:06:54;97760.06;;;17.76;100.00
72721;BME280;60835;50.974;10.322;2023-06-26T05:09:21;97777.47;;;17.91;100.00
72721;BME280;60835;50.974;10.322;2023-06-26T05:11:47;97793.75;;;18.14;100.00
72721;BME280;60835;50.974;10.322;2023-06-26T05:14:15;97804.47;;;18.14;100.00
72721;BME280;60835;50.974;10.322;2023-06-26T05:16:42;97818.69;;;18.40;100.00
72721;BME280;60835;50.974;10.322;2023-06-26T05:19:08;97831.38;;;18.51;100.00
72721;BME280;60835;50.974;10.322;2023-06-26T05:21:35;97842.47;;;18.61;100.00
72721;BME280;60835;50.974;10.322;2023-06-26T05:24:02;97855.09;;;18.72;100.00
72721;BME280;60835;50.974;10.322;2023-06-26T05:26:29;97871.81;;;18.74;100.00
72721;BME280;60835;50.974;10.322;2023-06-26T05:28:56;97874.28;;;18.94;100.00
72721;BME280;60835;50.974;10.322;2023-06-26T05:31:22;97885.56;;;19.02;100.00
72721;BME280;60835;50.974;10.322;2023-06-26T05:33:49;97898.22;;;18.95;100.00
72721;BME280;60835;50.974;10.322;2023-06-26T05:36:18;97897.03;;;19.09;100.00
72721;BME280;60835;50.974;10.322;2023-06-26T05:38:45;97907.59;;;19.04;100.00
72721;BME280;60835;50.974;10.322;2023-06-26T05:41:12;97902.72;;;19.19;100.00
72721;BME280;60835;50.974;10.322;2023-06-26T05:43:38;97910.38;;;19.40;100.00
72721;BME280;60835;50.974;10.322;2023-06-26T05:46:05;97928.94;;;19.60;100.00
72721;BME280;60835;50.974;10.322;2023-06-26T05:48:31;97929.88;;;19.84;100.00
72721;BME280;60835;50.974;10.322;2023-06-26T05:50:58;97944.56;;;19.99;100.00
72721;BME280;60835;50.974;10.322;2023-06-26T05:53:25;97953.91;;;20.86;100.00
72721;BME280;60835;50.974;10.322;2023-06-26T05:55:52;97990.47;;;21.63;100.00
72721;BME280;60835;50.974;10.322;2023-06-26T05:58:20;98014.22;;;22.01;100.00
72721;BME280;60835;50.974;10.322;2023-06-26T06:00:46;98030.94;;;23.28;100.00
72721;BME280;60835;50.974;10.322;2023-06-26T06:03:13;98048.97;;;23.39;100.00
72721;BME280;60835;50.974;10.322;2023-06-26T06:05:40;98053.59;;;23.27;100.00
72721;BME280;60835;50.974;10.322;2023-06-26T06:08:06;98039.47;;;24.46;100.00
72721;BME280;60835;50.974;10.322;2023-06-26T06:10:34;98042.56;;;24.60;100.00
72721;BME280;60835;50.974;10.322;2023-06-26T06:13:00;98032.19;;;24.95;100.00
72721;BME280;60835;50.974;10.322;2023-06-26T06:15:27;97937.28;;;25.43;100.00
72721;BME280;60835;50.974;10.322;2023-06-26T06:17:56;97696.91;;;25.86;100.00
72721;BME280;60835;50.974;10.322;2023-06-26T06:20:25;97903.03;;;25.64;100.00
72721;BME280;60835;50.974;10.322;2023-06-26T06:22:52;98371.09;;;25.57;100.00
72721;BME280;60835;50.974;10.322;2023-06-26T06:25:19;98386.59;;;25.83;100.00
72721;BME280;60835;50.974;10.322;2023-06-26T06:27:45;98328.59;;;25.19;100.00
72721;BME280;60835;50.974;10.322;2023-06-26T06:30:12;98332.19;;;25.90;100.00
72721;BME280;60835;50.974;10.322;2023-06-26T06:32:39;98370.00;;;25.80;100.00
72721;BME280;60835;50.974;10.322;2023-06-26T06:35:06;98441.00;;;27.37;100.00
72721;BME280;60835;50.974;10.322;2023-06-26T06:37:36;98501.75;;;26.94;100.00
72721;BME280;60835;50.974;10.322;2023-06-26T06:40:05;98547.91;;;26.73;100.00
72721;BME280;60835;50.974;10.322;2023-06-26T06:42:32;98500.50;;;27.07;100.00
72721;BME280;60835;50.974;10.322;2023-06-26T06:45:02;98588.66;;;27.90;100.00
72721;BME280;60835;50.974;10.322;2023-06-26T06:47:34;98612.38;;;27.62;100.00
72721;BME280;60835;50.974;10.322;2023-06-26T06:50:02;98610.47;;;27.31;100.00
72721;BME280;60835;50.974;10.322;2023-06-26T06:52:38;98635.16;;;28.72;100.00
72721;BME280;60835;50.974;10.322;2023-06-26T06:55:07;98682.41;;;29.13;100.00
72721;BME280;60835;50.974;10.322;2023-06-26T06:57:36;98707.06;;;29.58;100.00
72721;BME280;60835;50.974;10.322;2023-06-26T07:00:05;98720.25;;;30.06;100.00
72721;BME280;60835;50.974;10.322;2023-06-26T07:02:38;98697.06;;;30.09;100.00
72721;BME280;60835;50.974;10.322;2023-06-26T07:05:07;98724.84;;;30.56;100.00
72721;BME280;60835;50.974;10.322;2023-06-26T07:07:34;98737.69;;;30.71;100.00
72721;BME280;60835;50.974;10.322;2023-06-26T07:10:07;98709.03;;;30.53;100.00
72721;BME280;60835;50.974;10.322;2023-06-26T07:12:35;98734.38;;;31.43;100.00
72721;BME280;60835;50.974;10.322;2023-06-26T07:15:03;98747.81;;;31.88;100.00
72721;BME280;60835;50.974;10.322;2023-06-26T07:17:31;98740.91;;;32.35;100.00
72721;BME280;60835;50.974;10.322;2023-06-26T07:20:01;98751.25;;;32.95;100.00
72721;BME280;60835;50.974;10.322;2023-06-26T07:22:30;98754.72;;;32.54;100.00
72721;BME280;60835;50.974;10.322;2023-06-26T07:24:57;98760.53;;;31.64;100.00
72721;BME280;60835;50.974;10.322;2023-06-26T07:27:23;98783.31;;;31.55;100.00
72721;BME280;60835;50.974;10.322;2023-06-26T07:29:50;98770.13;;;31.62;100.00
72721;BME280;60835;50.974;10.322;2023-06-26T07:32:16;98775.19;;;32.27;100.00
72721;BME280;60835;50.974;10.322;2023-06-26T07:34:43;98790.19;;;31.91;100.00
72721;BME280;60835;50.974;10.322;2023-06-26T07:37:09;98780.00;;;31.63;100.00
72721;BME280;60835;50.974;10.322;2023-06-26T07:39:36;98778.56;;;31.06;100.00
72721;BME280;60835;50.974;10.322;2023-06-26T07:42:03;98778.44;;;31.37;100.00
72721;BME280;60835;50.974;10.322;2023-06-26T07:44:29;98790.03;;;32.21;100.00
72721;BME280;60835;50.974;10.322;2023-06-26T07:46:56;98795.94;;;31.51;100.00
72721;BME280;60835;50.974;10.322;2023-06-26T07:49:22;98790.88;;;31.73;100.00
72721;BME280;60835;50.974;10.322;2023-06-26T07:51:49;98783.13;;;31.31;100.00
72721;BME280;60835;50.974;10.322;2023-06-26T07:54:15;98788.19;;;31.63;100.00
72721;BME280;60835;50.974;10.322;2023-06-26T07:56:59;98777.13;;;32.84;100.00
72721;BME280;60835;50.974;10.322;2023-06-26T07:59:27;98776.66;;;33.48;100.00
72721;BME280;60835;50.974;10.322;2023-06-26T08:01:56;98776.72;;;31.61;100.00
72721;BME280;60835;50.974;10.322;2023-06-26T08:04:24;98784.00;;;31.11;100.00
72721;BME280;60835;50.974;10.322;2023-06-26T08:06:56;98777.00;;;30.25;100.00
72721;BME280;60835;50.974;10.322;2023-06-26T08:09:24;98776.19;;;30.59;100.00
72721;BME280;60835;50.974;10.322;2023-06-26T08:11:52;98773.41;;;31.00;100.00
72721;BME280;60835;50.974;10.322;2023-06-26T08:14:19;98774.00;;;31.61;100.00
72721;BME280;60835;50.974;10.322;2023-06-26T08:16:46;98786.59;;;32.39;100.00
72721;BME280;60835;50.974;10.322;2023-06-26T08:19:13;98784.38;;;33.46;100.00
72721;BME280;60835;50.974;10.322;2023-06-26T08:21:45;98790.53;;;31.84;100.00
72721;BME280;60835;50.974;10.322;2023-06-26T08:24:13;98778.16;;;31.92;100.00
72721;BME280;60835;50.974;10.322;2023-06-26T08:26:45;98760.78;;;33.45;100.00
72721;BME280;60835;50.974;10.322;2023-06-26T08:29:13;98772.72;;;33.36;100.00
72721;BME280;60835;50.974;10.322;2023-06-26T08:31:40;98783.91;;;33.82;100.00
72721;BME280;60835;50.974;10.322;2023-06-26T08:34:07;98783.31;;;33.66;100.00
72721;BME280;60835;50.974;10.322;2023-06-26T08:36:34;98775.63;;;32.06;100.00
72721;BME280;60835;50.974;10.322;2023-06-26T08:39:01;98771.34;;;31.35;100.00
72721;BME280;60835;50.974;10.322;2023-06-26T08:41:28;98770.38;;;32.09;100.00
72721;BME280;60835;50.974;10.322;2023-06-26T08:43:54;98768.56;;;31.41;100.00
72721;BME280;60835;50.974;10.322;2023-06-26T08:46:21;98772.84;;;34.24;100.00
72721;BME280;60835;50.974;10.322;2023-06-26T08:48:54;98776.25;;;33.60;100.00
72721;BME280;60835;50.974;10.322;2023-06-26T08:51:24;98780.97;;;33.12;100.00
72721;BME280;60835;50.974;10.322;2023-06-26T08:54:02;98769.56;;;34.22;100.00
72721;BME280;60835;50.974;10.322;2023-06-26T08:56:41;98772.88;;;34.56;100.00
72721;BME280;60835;50.974;10.322;2023-06-26T08:59:08;98767.94;;;34.53;100.00
72721;BME280;60835;50.974;10.322;2023-06-26T09:01:37;98765.88;;;34.77;100.00
72721;BME280;60835;50.974;10.322;2023-06-26T09:04:04;98772.22;;;35.46;99.64
72721;BME280;60835;50.974;10.322;2023-06-26T09:06:31;98772.03;;;35.42;100.00
72721;BME280;60835;50.974;10.322;2023-06-26T09:08:58;98765.72;;;35.15;100.00
72721;BME280;60835;50.974;10.322;2023-06-26T09:11:24;98779.06;;;33.31;100.00
72721;BME280;60835;50.974;10.322;2023-06-26T09:13:51;98759.81;;;33.55;100.00
72721;BME280;60835;50.974;10.322;2023-06-26T09:16:24;98764.16;;;33.61;100.00
72721;BME280;60835;50.974;10.322;2023-06-26T09:18:52;98754.28;;;34.48;100.00
72721;BME280;60835;50.974;10.322;2023-06-26T09:21:19;98747.16;;;35.47;100.00
72721;BME280;60835;50.974;10.322;2023-06-26T09:23:49;98747.03;;;35.66;99.94
72721;BME280;60835;50.974;10.322;2023-06-26T09:26:16;98754.31;;;33.79;100.00
72721;BME280;60835;50.974;10.322;2023-06-26T09:28:42;98739.03;;;35.29;100.00
72721;BME280;60835;50.974;10.322;2023-06-26T09:31:09;98758.81;;;32.56;100.00
72721;BME280;60835;50.974;10.322;2023-06-26T09:33:37;98743.78;;;33.86;100.00
72721;BME280;60835;50.974;10.322;2023-06-26T09:36:09;98739.41;;;35.50;100.00
72721;BME280;60835;50.974;10.322;2023-06-26T09:38:45;98733.13;;;35.85;96.76
72721;BME280;60835;50.974;10.322;2023-06-26T09:41:11;98732.63;;;35.69;92.61
72721;BME280;60835;50.974;10.322;2023-06-26T09:43:47;98717.41;;;36.52;91.16
72721;BME280;60835;50.974;10.322;2023-06-26T09:46:37;98723.06;;;36.25;89.46
72721;BME280;60835;50.974;10.322;2023-06-26T09:49:06;98710.28;;;37.47;85.76
72721;BME280;60835;50.974;10.322;2023-06-26T09:51:34;98712.50;;;37.28;83.55
72721;BME280;60835;50.974;10.322;2023-06-26T09:54:04;98695.28;;;38.42;82.18
72721;BME280;60835;50.974;10.322;2023-06-26T09:56:31;98695.50;;;37.43;80.96
72721;BME280;60835;50.974;10.322;2023-06-26T09:59:00;98699.41;;;37.85;81.57
72721;BME280;60835;50.974;10.322;2023-06-26T10:01:28;98688.44;;;36.41;85.81
72721;BME280;60835;50.974;10.322;2023-06-26T10:03:55;98703.13;;;34.06;90.25
72721;BME280;60835;50.974;10.322;2023-06-26T10:06:28;98702.84;;;34.21;88.41
72721;BME280;60835;50.974;10.322;2023-06-26T10:09:00;98678.09;;;37.34;83.12
72721;BME280;60835;50.974;10.322;2023-06-26T10:11:34;98679.00;;;35.31;84.60
72721;BME280;60835;50.974;10.322;2023-06-26T10:14:04;98663.31;;;36.73;84.41
72721;BME280;60835;50.974;10.322;2023-06-26T10:16:44;98656.31;;;36.58;83.79
72721;BME280;60835;50.974;10.322;2023-06-26T10:19:14;98677.50;;;35.11;85.27
72721;BME280;60835;50.974;10.322;2023-06-26T10:21:43;98675.56;;;36.28;84.36
72721;BME280;60835;50.974;10.322;2023-06-26T10:24:13;98665.16;;;37.77;78.19
72721;BME280;60835;50.974;10.322;2023-06-26T10:26:44;98669.44;;;35.64;81.53
72721;BME280;60835;50.974;10.322;2023-06-26T10:29:14;98681.16;;;33.50;87.48
72721;BME280;60835;50.974;10.322;2023-06-26T10:31:45;98677.91;;;33.48;89.30
72721;BME280;60835;50.974;10.322;2023-06-26T10:34:13;98672.44;;;35.40;87.25
72721;BME280;60835;50.974;10.322;2023-06-26T10:36:40;98663.78;;;36.36;82.05
72721;BME280;60835;50.974;10.322;2023-06-26T10:39:08;98670.59;;;36.60;80.87
72721;BME280;60835;50.974;10.322;2023-06-26T10:41:40;98666.28;;;35.71;80.31
72721;BME280;60835;50.974;10.322;2023-06-26T10:44:43;98662.22;;;35.68;83.00
72721;BME280;60835;50.974;10.322;2023-06-26T10:47:11;98662.63;;;36.28;81.66
72721;BME280;60835;50.974;10.322;2023-06-26T10:49:38;98669.91;;;33.70;84.97
72721;BME280;60835;50.974;10.322;2023-06-26T10:52:08;98664.56;;;33.60;88.08
72721;BME280;60835;50.974;10.322;2023-06-26T10:54:35;98667.03;;;34.13;87.13
72721;BME280;60835;50.974;10.322;2023-06-26T10:57:07;98662.63;;;34.44;88.63
72721;BME280;60835;50.974;10.322;2023-06-26T10:59:33;98666.09;;;34.63;88.35
72721;BME280;60835;50.974;10.322;2023-06-26T11:02:01;98663.78;;;35.47;86.72
72721;BME280;60835;50.974;10.322;2023-06-26T11:04:45;98661.41;;;35.32;87.53
72721;BME280;60835;50.974;10.322;2023-06-26T11:12:38;98661.84;;;35.47;87.14
72721;BME280;60835;50.974;10.322;2023-06-26T11:15:09;98669.91;;;34.03;91.05
72721;BME280;60835;50.974;10.322;2023-06-26T11:17:37;98683.38;;;34.37;91.61
72721;BME280;60835;50.974;10.322;2023-06-26T11:20:05;98674.66;;;35.03;91.27
72721;BME280;60835;50.974;10.322;2023-06-26T11:22:35;98678.03;;;35.49;90.74
72721;BME280;60835;50.974;10.322;2023-06-26T11:25:03;98668.06;;;35.53;89.11
72721;BME280;60835;50.974;10.322;2023-06-26T11:27:40;98657.22;;;36.45;87.44
72721;BME280;60835;50.974;10.322;2023-06-26T11:30:09;98670.91;;;35.84;88.49
72721;BME280;60835;50.974;10.322;2023-06-26T11:32:37;98681.19;;;35.56;90.25
72721;BME280;60835;50.974;10.322;2023-06-26T11:35:04;98687.34;;;35.39;91.08
72721;BME280;60835;50.974;10.322;2023-06-26T11:37:32;98689.09;;;35.22;91.00
72721;BME280;60835;50.974;10.322;2023-06-26T11:39:59;98693.75;;;34.53;94.49
72721;BME280;60835;50.974;10.322;2023-06-26T11:42:25;98708.03;;;33.91;99.87
72721;BME280;60835;50.974;10.322;2023-06-26T11:44:52;98710.91;;;33.99;100.00
72721;BME280;60835;50.974;10.322;2023-06-26T11:47:20;98713.81;;;33.33;100.00
72721;BME280;60835;50.974;10.322;2023-06-26T11:49:48;98724.75;;;32.86;100.00
72721;BME280;60835;50.974;10.322;2023-06-26T11:52:16;98717.94;;;33.87;100.00
72721;BME280;60835;50.974;10.322;2023-06-26T11:54:43;98730.97;;;33.39;100.00
72721;BME280;60835;50.974;10.322;2023-06-26T11:57:13;98733.47;;;32.93;100.00
72721;BME280;60835;50.974;10.322;2023-06-26T11:59:41;98723.47;;;33.02;100.00
72721;BME280;60835;50.974;10.322;2023-06-26T12:02:13;98716.91;;;33.45;100.00
72721;BME280;60835;50.974;10.322;2023-06-26T12:04:44;98729.25;;;33.85;100.00
72721;BME280;60835;50.974;10.322;2023-06-26T12:07:12;98726.56;;;34.63;100.00
72721;BME280;60835;50.974;10.322;2023-06-26T12:09:41;98733.31;;;34.06;100.00
72721;BME280;60835;50.974;10.322;2023-06-26T12:12:09;98731.56;;;34.88;100.00
72721;BME280;60835;50.974;10.322;2023-06-26T12:14:36;98728.75;;;34.48;100.00
72721;BME280;60835;50.974;10.322;2023-06-26T12:17:04;98723.22;;;34.02;100.00
72721;BME280;60835;50.974;10.322;2023-06-26T12:19:31;98736.28;;;34.10;100.00
72721;BME280;60835;50.974;10.322;2023-06-26T12:21:58;98740.28;;;33.19;100.00
72721;BME280;60835;50.974;10.322;2023-06-26T12:24:25;98743.41;;;32.84;100.00
72721;BME280;60835;50.974;10.322;2023-06-26T12:26:55;98732.00;;;33.24;100.00
72721;BME280;60835;50.974;10.322;2023-06-26T12:29:32;98737.84;;;33.79;100.00
72721;BME280;60835;50.974;10.322;2023-06-26T12:31:59;98752.16;;;32.28;100.00
72721;BME280;60835;50.974;10.322;2023-06-26T12:34:31;98746.13;;;31.54;100.00
72721;BME280;60835;50.974;10.322;2023-06-26T12:37:03;98742.56;;;30.84;100.00
72721;BME280;60835;50.974;10.322;2023-06-26T12:39:51;98733.50;;;30.89;100.00
72721;BME280;60835;50.974;10.322;2023-06-26T12:42:25;98720.25;;;30.47;100.00
72721;BME280;60835;50.974;10.322;2023-06-26T12:44:54;98680.63;;;30.34;100.00
72721;BME280;60835;50.974;10.322;2023-06-26T12:47:24;98692.41;;;29.79;100.00
72721;BME280;60835;50.974;10.322;2023-06-26T12:49:52;98669.97;;;29.47;100.00
72721;BME280;60835;50.974;10.322;2023-06-26T12:52:21;98618.38;;;28.38;100.00